createdAt,value
2019-05-29T00:00:33.764Z,60.18
2019-05-29T00:03:06.607Z,61.47
2019-05-29T00:05:39.396Z,61.95
2019-05-29T00:08:12.320Z,62.79
2019-05-29T00:10:45.160Z,62.91
2019-05-29T00:13:18.458Z,59.06
2019-05-29T00:15:51.135Z,54.83
2019-05-29T00:18:23.515Z,52.70
2019-05-29T00:20:56.201Z,53.69
2019-05-29T00:23:28.585Z,55.44
2019-05-29T00:26:01.118Z,56.19
2019-05-29T00:28:33.656Z,57.37
2019-05-29T00:31:06.136Z,58.36
2019-05-29T00:33:38.690Z,58.84
2019-05-29T00:36:12.341Z,59.17
2019-05-29T00:38:45.000Z,59.33
2019-05-29T00:41:17.640Z,60.23
2019-05-29T00:43:50.535Z,60.85
2019-05-29T00:46:23.300Z,61.57
2019-05-29T00:48:55.800Z,62.67
2019-05-29T00:51:28.325Z,63.22
2019-05-29T00:54:00.814Z,58.70
2019-05-29T00:56:33.470Z,56.49
2019-05-29T00:59:06.076Z,54.87
2019-05-29T01:01:38.604Z,55.50
2019-05-29T01:04:11.513Z,56.87
2019-05-29T01:06:45.227Z,58.11
2019-05-29T01:09:18.597Z,58.67
2019-05-29T01:11:51.265Z,59.44
2019-05-29T01:14:23.804Z,60.35
2019-05-29T01:16:56.210Z,61.56
2019-05-29T01:19:28.706Z,62.14
2019-05-29T01:22:01.614Z,62.69
2019-05-29T01:24:34.032Z,64.07
2019-05-29T01:27:07.485Z,61.17
2019-05-29T01:29:40.280Z,54.41
2019-05-29T01:32:13.439Z,50.42
2019-05-29T01:34:46.748Z,51.81
2019-05-29T01:37:20.216Z,52.72
2019-05-29T01:39:53.979Z,53.48
2019-05-29T01:42:27.728Z,54.89
2019-05-29T01:45:07.822Z,55.80
2019-05-29T01:47:35.686Z,57.21
2019-05-29T01:50:09.270Z,58.51
2019-05-29T01:52:41.780Z,59.06
2019-05-29T01:55:15.628Z,59.62
2019-05-29T01:57:49.565Z,61.16
2019-05-29T02:00:24.672Z,61.44
2019-05-29T02:02:57.165Z,62.66
2019-05-29T02:05:29.690Z,63.72
2019-05-29T02:08:02.093Z,59.72
2019-05-29T02:10:34.596Z,55.25
2019-05-29T02:13:07.272Z,51.45
2019-05-29T02:15:39.990Z,52.26
2019-05-29T02:18:12.625Z,53.58
2019-05-29T02:20:48.231Z,54.14
2019-05-29T02:23:39.915Z,55.21
2019-05-29T02:26:12.725Z,56.05
2019-05-29T02:28:45.195Z,57.03
2019-05-29T02:31:19.411Z,58.16
2019-05-29T02:33:51.787Z,59.11
2019-05-29T02:36:24.739Z,59.80
2019-05-29T02:38:58.787Z,61.51
2019-05-29T02:41:31.470Z,62.47
2019-05-29T02:44:04.145Z,64.67
2019-05-29T02:46:36.621Z,59.30
2019-05-29T02:49:09.292Z,55.37
2019-05-29T02:51:42.055Z,55.41
2019-05-29T02:54:14.966Z,56.47
2019-05-29T02:56:47.436Z,57.42
2019-05-29T02:59:21.096Z,58.30
2019-05-29T03:01:53.691Z,59.39
2019-05-29T03:04:26.706Z,59.66
2019-05-29T03:07:01.192Z,60.97
2019-05-29T03:09:33.926Z,62.04
2019-05-29T03:12:06.336Z,62.85
2019-05-29T03:14:39.237Z,65.30
2019-05-29T03:17:12.259Z,60.18
2019-05-29T03:19:44.776Z,55.56
2019-05-29T03:22:17.562Z,52.75
2019-05-29T03:24:49.950Z,53.02
2019-05-29T03:27:22.315Z,54.03
2019-05-29T03:29:54.878Z,54.64
2019-05-29T03:32:32.438Z,55.02
2019-05-29T03:35:02.829Z,55.87
2019-05-29T03:37:35.341Z,57.12
2019-05-29T03:40:09.332Z,58.02
2019-05-29T03:42:41.686Z,57.59
2019-05-29T03:45:14.391Z,58.52
2019-05-29T03:47:47.042Z,57.38
2019-05-29T03:50:19.651Z,57.41
2019-05-29T03:52:52.326Z,55.79
2019-05-29T03:55:24.791Z,56.62
2019-05-29T03:57:58.015Z,56.67
2019-05-29T04:00:40.171Z,57.33
2019-05-29T04:03:04.911Z,57.72
2019-05-29T04:05:38.044Z,57.55
2019-05-29T04:08:11.146Z,57.84
2019-05-29T04:10:43.587Z,60.17
2019-05-29T04:13:16.117Z,59.46
2019-05-29T04:15:50.196Z,60.37
2019-05-29T04:18:24.191Z,60.78
2019-05-29T04:20:58.534Z,61.71
2019-05-29T04:23:36.107Z,61.98
2019-05-29T04:26:10.332Z,62.55
2019-05-29T04:28:43.317Z,63.11
2019-05-29T04:31:15.864Z,59.57
2019-05-29T04:33:48.706Z,54.38
2019-05-29T04:36:21.391Z,51.55
2019-05-29T04:38:53.835Z,51.57
2019-05-29T04:41:26.397Z,53.24
2019-05-29T04:43:58.885Z,53.16
2019-05-29T04:46:31.791Z,53.30
2019-05-29T04:49:04.470Z,54.79
2019-05-29T04:51:37.483Z,55.54
2019-05-29T04:54:10.023Z,56.21
2019-05-29T04:56:42.710Z,56.83
2019-05-29T04:59:15.075Z,57.73
2019-05-29T05:01:47.879Z,59.00
2019-05-29T05:04:20.530Z,59.32
2019-05-29T05:06:53.175Z,59.92
2019-05-29T05:09:25.690Z,60.36
2019-05-29T05:11:59.320Z,60.97
2019-05-29T05:14:31.896Z,61.32
2019-05-29T05:17:04.350Z,61.63
2019-05-29T05:19:37.998Z,62.04
2019-05-29T05:22:10.774Z,62.22
2019-05-29T05:24:44.131Z,62.47
2019-05-29T05:27:16.532Z,61.55
2019-05-29T05:29:49.064Z,56.60
2019-05-29T05:32:21.732Z,53.97
2019-05-29T05:34:54.375Z,55.26
2019-05-29T05:37:27.061Z,53.72
2019-05-29T05:39:59.599Z,54.15
2019-05-29T05:42:35.104Z,54.76
2019-05-29T05:45:10.872Z,55.19
2019-05-29T05:47:53.615Z,54.59
2019-05-29T05:50:19.696Z,55.81
2019-05-29T05:52:52.226Z,56.81
2019-05-29T05:55:24.840Z,55.25
2019-05-29T05:57:57.591Z,56.49
2019-05-29T06:00:35.908Z,56.17
2019-05-29T06:03:08.852Z,56.40
2019-05-29T06:05:42.291Z,55.37
2019-05-29T06:08:16.180Z,54.57
2019-05-29T06:13:25.018Z,54.21
2019-05-29T06:15:58.465Z,54.71
2019-05-29T06:18:32.281Z,54.59
2019-05-29T06:21:05.200Z,54.47
2019-05-29T06:23:38.826Z,54.72
2019-05-29T06:26:11.341Z,54.82
2019-05-29T06:28:45.245Z,54.93
2019-05-29T06:31:17.741Z,54.45
2019-05-29T06:33:50.331Z,54.72
2019-05-29T06:36:22.981Z,55.06
2019-05-29T06:38:55.680Z,55.31
2019-05-29T06:41:28.742Z,54.25
2019-05-29T06:44:01.643Z,55.00
2019-05-29T06:46:34.441Z,53.35
2019-05-29T06:49:06.878Z,53.96
2019-05-29T06:51:39.590Z,53.03
2019-05-29T06:54:12.160Z,52.18
2019-05-29T06:56:44.870Z,51.33
2019-05-29T06:59:17.665Z,53.09
2019-05-29T07:01:50.330Z,53.37
2019-05-29T07:04:23.245Z,51.36
2019-05-29T07:06:55.765Z,52.95
2019-05-29T07:09:28.470Z,50.74
2019-05-29T07:12:00.955Z,51.76
2019-05-29T07:14:33.530Z,51.73
2019-05-29T07:17:05.976Z,50.00
2019-05-29T07:19:49.054Z,47.21
2019-05-29T07:22:12.557Z,48.97
2019-05-29T07:24:45.110Z,48.53
2019-05-29T07:27:17.715Z,48.92
2019-05-29T07:29:50.006Z,51.66
2019-05-29T07:32:22.536Z,51.22
2019-05-29T07:35:03.201Z,49.51
2019-05-29T07:37:30.478Z,50.75
2019-05-29T07:40:03.015Z,50.39
2019-05-29T07:42:35.375Z,48.20
2019-05-29T07:45:09.915Z,50.00
2019-05-29T07:47:42.761Z,50.39
2019-05-29T07:50:16.156Z,47.91
2019-05-29T07:52:49.201Z,48.73
2019-05-29T07:55:23.662Z,48.54
2019-05-29T07:57:55.576Z,48.36
2019-05-29T08:00:35.825Z,47.19
2019-05-29T08:03:02.203Z,47.08
2019-05-29T08:05:34.756Z,47.20
2019-05-29T08:08:07.482Z,46.73
2019-05-29T08:10:40.048Z,46.78
2019-05-29T08:13:12.995Z,46.22
2019-05-29T08:15:57.484Z,47.07
2019-05-29T08:18:19.716Z,46.38
2019-05-29T08:20:51.975Z,45.73
2019-05-29T08:23:24.416Z,46.23
2019-05-29T08:25:56.715Z,47.29
2019-05-29T08:28:29.156Z,46.70
2019-05-29T08:31:01.656Z,46.75
2019-05-29T08:33:34.158Z,46.04
2019-05-29T08:36:06.459Z,46.41
2019-05-29T08:38:38.937Z,49.08
2019-05-29T08:41:11.195Z,45.99
2019-05-29T08:43:45.214Z,46.59
2019-05-29T08:46:17.515Z,48.58
2019-05-29T08:48:50.184Z,47.82
2019-05-29T08:51:22.538Z,47.09
2019-05-29T08:53:55.156Z,45.38
2019-05-29T08:56:27.555Z,46.57
2019-05-29T08:58:59.895Z,44.51
2019-05-29T09:01:33.181Z,44.74
2019-05-29T09:04:05.798Z,44.53
2019-05-29T09:06:38.236Z,45.86
2019-05-29T09:09:11.746Z,43.85
2019-05-29T09:11:45.246Z,45.63
2019-05-29T09:14:18.380Z,45.29
2019-05-29T09:16:50.886Z,45.50
2019-05-29T09:19:23.300Z,44.82
2019-05-29T09:21:55.680Z,44.74
2019-05-29T09:24:28.081Z,45.49
2019-05-29T09:27:00.823Z,44.59
2019-05-29T09:29:33.180Z,43.66
2019-05-29T09:32:05.760Z,47.19
2019-05-29T09:34:39.060Z,45.37
2019-05-29T09:37:11.581Z,43.83
2019-05-29T09:39:44.233Z,44.55
2019-05-29T09:42:17.380Z,44.97
2019-05-29T09:44:50.950Z,44.63
2019-05-29T09:47:24.258Z,44.39
2019-05-29T09:49:57.870Z,44.13
2019-05-29T09:52:30.928Z,43.83
2019-05-29T09:55:05.040Z,43.71
2019-05-29T09:57:37.386Z,44.05
2019-05-29T10:00:12.214Z,43.83
2019-05-29T10:02:44.555Z,45.91
2019-05-29T10:05:16.992Z,44.29
2019-05-29T10:07:49.582Z,44.35
2019-05-29T10:10:22.753Z,42.58
2019-05-29T10:12:56.488Z,43.86
2019-05-29T10:15:29.737Z,43.72
2019-05-29T10:18:02.738Z,43.34
2019-05-29T10:20:36.697Z,43.06
2019-05-29T10:23:08.996Z,43.08
2019-05-29T10:25:41.351Z,43.83
2019-05-29T10:28:13.991Z,43.45
2019-05-29T10:30:48.287Z,45.24
2019-05-29T10:33:20.826Z,44.66
2019-05-29T10:35:55.359Z,45.54
2019-05-29T10:38:27.412Z,46.16
2019-05-29T10:41:06.323Z,45.45
2019-05-29T10:43:35.367Z,46.70
2019-05-29T10:46:07.857Z,45.74
2019-05-29T10:48:40.351Z,44.67
2019-05-29T10:51:12.702Z,46.09
2019-05-29T10:53:46.829Z,43.47
2019-05-29T10:56:21.500Z,45.84
2019-05-29T10:58:59.312Z,45.90
2019-05-29T11:01:28.235Z,43.84
2019-05-29T11:04:00.871Z,47.15
2019-05-29T11:06:33.431Z,45.95
2019-05-29T11:09:07.830Z,45.60
2019-05-29T11:11:40.291Z,44.84
2019-05-29T11:14:12.870Z,46.48
2019-05-29T11:16:45.298Z,43.83
2019-05-29T11:19:17.777Z,44.43
2019-05-29T11:21:50.071Z,44.09
2019-05-29T11:24:22.488Z,42.55
2019-05-29T11:26:54.762Z,42.66
2019-05-29T11:29:27.331Z,43.79
2019-05-29T11:31:59.592Z,42.45
2019-05-29T11:34:32.111Z,43.56
2019-05-29T11:37:04.403Z,42.41
2019-05-29T11:39:36.810Z,42.51
2019-05-29T11:42:09.071Z,45.18
2019-05-29T11:44:41.625Z,43.97
2019-05-29T11:47:14.201Z,43.26
2019-05-29T11:49:46.773Z,42.72
2019-05-29T11:52:24.859Z,43.03
2019-05-29T11:54:56.472Z,41.86
2019-05-29T11:57:27.413Z,43.07
2019-05-29T12:00:07.114Z,43.02
2019-05-29T12:02:34.276Z,43.26
2019-05-29T12:05:11.710Z,44.06
2019-05-29T12:07:44.026Z,44.03
2019-05-29T12:10:17.059Z,44.10
2019-05-29T12:12:49.627Z,43.86
2019-05-29T12:15:22.225Z,44.52
2019-05-29T12:18:08.821Z,44.98
2019-05-29T12:20:29.243Z,44.19
2019-05-29T12:23:25.554Z,43.97
2019-05-29T12:25:36.825Z,42.92
2019-05-29T12:28:09.425Z,43.92
2019-05-29T12:30:41.966Z,44.12
2019-05-29T12:33:14.487Z,42.53
2019-05-29T12:35:50.045Z,42.04
2019-05-29T12:38:20.812Z,42.00
2019-05-29T12:40:53.586Z,41.20
2019-05-29T12:43:27.737Z,42.60
2019-05-29T12:46:00.272Z,40.68
2019-05-29T12:48:33.865Z,41.06
2019-05-29T12:51:06.210Z,39.83
2019-05-29T12:53:38.580Z,39.08
2019-05-29T12:56:10.865Z,39.85
2019-05-29T12:58:43.228Z,40.79
2019-05-29T13:01:15.626Z,39.23
2019-05-29T13:03:48.047Z,40.11
2019-05-29T13:06:20.709Z,40.47
2019-05-29T13:08:54.450Z,40.08
2019-05-29T13:11:26.986Z,40.16
2019-05-29T13:14:00.488Z,39.80
2019-05-29T13:16:33.125Z,38.64
2019-05-29T13:19:05.774Z,39.80
2019-05-29T13:21:38.286Z,38.82
2019-05-29T13:24:11.740Z,39.54
2019-05-29T13:26:44.515Z,39.88
2019-05-29T13:29:17.126Z,38.90
2019-05-29T13:31:49.753Z,38.53
2019-05-29T13:34:22.260Z,39.71
2019-05-29T13:36:59.824Z,38.18
2019-05-29T13:39:29.982Z,37.18
2019-05-29T13:42:08.637Z,40.02
2019-05-29T13:44:36.740Z,39.20
2019-05-29T13:47:09.280Z,39.22
2019-05-29T13:49:42.087Z,38.71
2019-05-29T13:52:14.817Z,41.78
2019-05-29T13:54:47.511Z,39.99
2019-05-29T13:57:19.910Z,39.42
2019-05-29T13:59:53.635Z,38.80
2019-05-29T14:02:26.072Z,39.53
2019-05-29T14:04:58.511Z,40.19
2019-05-29T14:07:31.052Z,38.59
2019-05-29T14:10:04.721Z,38.68
2019-05-29T14:12:39.391Z,39.02
2019-05-29T14:15:13.110Z,40.31
2019-05-29T14:17:46.294Z,37.82
2019-05-29T14:20:19.794Z,38.11
2019-05-29T14:22:52.981Z,38.55
2019-05-29T14:25:25.508Z,39.26
2019-05-29T14:28:02.493Z,39.91
2019-05-29T14:30:36.018Z,39.64
2019-05-29T14:33:11.953Z,39.74
2019-05-29T14:35:43.005Z,38.65
2019-05-29T14:38:15.475Z,38.61
2019-05-29T14:40:48.121Z,37.72
2019-05-29T14:43:20.770Z,37.83
2019-05-29T14:45:53.263Z,38.76
2019-05-29T14:48:26.007Z,39.08
2019-05-29T14:50:58.495Z,38.23
2019-05-29T14:53:31.325Z,39.26
2019-05-29T14:56:04.485Z,39.80
2019-05-29T14:58:37.122Z,39.17
2019-05-29T15:01:09.585Z,39.08
2019-05-29T15:03:42.261Z,39.19
2019-05-29T15:06:14.947Z,39.41
2019-05-29T15:08:47.745Z,38.77
2019-05-29T15:11:20.166Z,40.14
2019-05-29T15:13:52.975Z,40.21
2019-05-29T15:16:25.693Z,39.44
2019-05-29T15:18:58.322Z,41.12
2019-05-29T15:21:30.885Z,39.25
2019-05-29T15:24:03.539Z,40.10
2019-05-29T15:26:36.115Z,41.05
2019-05-29T15:29:08.568Z,40.00
2019-05-29T15:31:41.165Z,40.81
2019-05-29T15:34:14.478Z,40.24
2019-05-29T15:36:47.136Z,40.19
2019-05-29T15:39:21.210Z,41.66
2019-05-29T15:41:53.857Z,40.48
2019-05-29T15:44:26.330Z,40.25
2019-05-29T15:46:58.960Z,39.19
2019-05-29T15:49:31.985Z,39.32
2019-05-29T15:52:04.865Z,39.42
2019-05-29T15:54:37.649Z,39.78
2019-05-29T15:57:10.999Z,39.73
2019-05-29T15:59:43.765Z,39.44
2019-05-29T16:02:17.799Z,39.51
2019-05-29T16:04:50.911Z,41.63
2019-05-29T16:07:23.552Z,41.88
2019-05-29T16:09:57.231Z,40.65
2019-05-29T16:12:31.236Z,39.86
2019-05-29T16:15:05.131Z,40.10
2019-05-29T16:17:37.806Z,40.06
2019-05-29T16:20:12.349Z,39.65
2019-05-29T16:22:45.411Z,39.62
2019-05-29T16:25:19.111Z,40.54
2019-05-29T16:27:51.878Z,40.08
2019-05-29T16:30:24.661Z,40.53
2019-05-29T16:32:57.602Z,40.50
2019-05-29T16:35:30.012Z,40.93
2019-05-29T16:38:02.667Z,41.26
2019-05-29T16:40:35.357Z,41.48
2019-05-29T16:43:08.247Z,41.64
2019-05-29T16:45:40.710Z,41.25
2019-05-29T16:48:14.573Z,41.47
2019-05-29T16:50:47.642Z,40.97
2019-05-29T16:53:21.030Z,42.36
2019-05-29T16:55:54.583Z,41.25
2019-05-29T16:58:27.485Z,42.16
2019-05-29T17:01:00.561Z,42.82
2019-05-29T17:03:33.009Z,42.69
2019-05-29T17:06:05.679Z,44.32
2019-05-29T17:08:38.371Z,43.61
2019-05-29T17:11:11.716Z,42.76
2019-05-29T17:13:44.484Z,44.44
2019-05-29T17:16:16.842Z,43.47
2019-05-29T17:18:50.770Z,44.16
2019-05-29T17:21:24.842Z,43.37
2019-05-29T17:23:57.830Z,43.89
2019-05-29T17:26:30.281Z,44.40
2019-05-29T17:29:03.173Z,45.25
2019-05-29T17:31:35.910Z,44.43
2019-05-29T17:34:08.691Z,44.95
2019-05-29T17:36:41.362Z,44.80
2019-05-29T17:39:15.232Z,44.09
2019-05-29T17:41:48.056Z,45.18
2019-05-29T17:44:21.406Z,44.18
2019-05-29T17:46:54.026Z,44.49
2019-05-29T17:49:33.014Z,44.64
2019-05-29T17:52:01.034Z,45.03
2019-05-29T17:54:33.781Z,45.69
2019-05-29T17:57:06.368Z,45.61
2019-05-29T17:59:38.986Z,46.32
2019-05-29T18:02:11.907Z,46.15
2019-05-29T18:04:44.760Z,46.23
2019-05-29T18:07:18.296Z,46.93
2019-05-29T18:09:52.565Z,46.83
2019-05-29T18:12:25.079Z,47.12
2019-05-29T18:14:57.900Z,47.00
2019-05-29T18:17:30.800Z,47.77
2019-05-29T18:20:04.391Z,47.31
2019-05-29T18:22:37.125Z,47.61
2019-05-29T18:25:11.376Z,48.31
2019-05-29T18:27:43.896Z,48.05
2019-05-29T18:30:18.616Z,49.03
2019-05-29T18:32:51.345Z,48.88
2019-05-29T18:35:24.957Z,48.79
2019-05-29T18:37:58.270Z,49.19
2019-05-29T18:40:31.000Z,49.07
2019-05-29T18:43:03.702Z,50.08
2019-05-29T18:45:36.416Z,50.72
2019-05-29T18:48:09.091Z,51.42
2019-05-29T18:50:44.354Z,51.33
2019-05-29T18:53:16.410Z,52.87
2019-05-29T18:55:49.308Z,53.24
2019-05-29T18:58:22.220Z,52.51
2019-05-29T19:00:54.975Z,52.49
2019-05-29T19:03:29.640Z,53.88
2019-05-29T19:06:02.524Z,53.43
2019-05-29T19:08:35.440Z,53.09
2019-05-29T19:11:09.456Z,53.87
2019-05-29T19:13:42.411Z,52.99
2019-05-29T19:16:15.328Z,51.99
2019-05-29T19:18:47.950Z,53.80
2019-05-29T19:21:20.536Z,53.79
2019-05-29T19:23:54.172Z,53.80
2019-05-29T19:26:26.756Z,54.06
2019-05-29T19:28:59.511Z,54.74
2019-05-29T19:31:33.265Z,53.75
2019-05-29T19:34:06.475Z,54.54
2019-05-29T19:36:40.431Z,54.43
2019-05-29T19:39:13.157Z,53.62
2019-05-29T19:41:45.900Z,53.86
2019-05-29T19:44:18.711Z,54.55
2019-05-29T19:46:53.962Z,55.41
2019-05-29T19:49:27.257Z,55.93
2019-05-29T19:52:00.225Z,56.07
2019-05-29T19:54:33.650Z,56.17
2019-05-29T19:57:07.545Z,55.41
2019-05-29T19:59:40.202Z,55.72
2019-05-29T20:02:12.767Z,57.62
2019-05-29T20:04:45.414Z,57.80
2019-05-29T20:07:18.067Z,58.21
2019-05-29T20:09:50.805Z,57.25
2019-05-29T20:12:23.205Z,55.98
2019-05-29T20:14:55.985Z,56.25
2019-05-29T20:17:28.595Z,55.77
2019-05-29T20:20:01.266Z,55.77
2019-05-29T20:22:34.962Z,56.12
2019-05-29T20:25:09.246Z,56.39
2019-05-29T20:27:42.478Z,55.71
2019-05-29T20:30:19.651Z,55.92
2019-05-29T20:32:52.665Z,56.44
2019-05-29T20:35:25.270Z,55.43
2019-05-29T20:37:58.211Z,55.55
2019-05-29T20:40:31.255Z,55.67
2019-05-29T20:43:04.172Z,55.40
2019-05-29T20:45:37.644Z,55.30
2019-05-29T20:48:10.954Z,54.94
2019-05-29T20:50:43.675Z,55.96
2019-05-29T20:53:16.260Z,55.92
2019-05-29T20:55:49.241Z,55.60
2019-05-29T20:58:24.887Z,54.89
2019-05-29T21:00:56.284Z,55.34
2019-05-29T21:03:30.295Z,55.16
2019-05-29T21:06:03.825Z,55.45
2019-05-29T21:08:36.905Z,54.94
2019-05-29T21:11:10.205Z,55.29
2019-05-29T21:13:43.698Z,55.21
2019-05-29T21:16:16.366Z,55.11
2019-05-29T21:18:49.170Z,54.98
2019-05-29T21:21:21.906Z,55.17
2019-05-29T21:23:54.855Z,54.67
2019-05-29T21:26:27.760Z,54.93
2019-05-29T21:29:00.565Z,54.82
2019-05-29T21:31:33.238Z,55.05
2019-05-29T21:34:05.981Z,55.17
2019-05-29T21:36:38.536Z,55.31
2019-05-29T21:39:11.340Z,54.75
2019-05-29T21:41:44.940Z,55.86
2019-05-29T21:44:17.575Z,55.64
2019-05-29T21:46:50.295Z,55.20
2019-05-29T21:49:22.850Z,55.06
2019-05-29T21:51:55.521Z,56.03
2019-05-29T21:54:28.160Z,55.16
2019-05-29T21:57:00.735Z,55.54
2019-05-29T21:59:33.391Z,55.68
2019-05-29T22:02:07.701Z,55.63
2019-05-29T22:04:40.710Z,56.01
2019-05-29T22:07:14.139Z,56.20
2019-05-29T22:09:46.967Z,56.89
2019-05-29T22:12:19.260Z,56.82
2019-05-29T22:14:53.265Z,56.44
2019-05-29T22:17:26.370Z,57.11
2019-05-29T22:19:59.150Z,56.96
2019-05-29T22:22:31.575Z,58.02
2019-05-29T22:25:05.421Z,58.02
2019-05-29T22:27:38.708Z,58.14
2019-05-29T22:30:11.605Z,58.09
2019-05-29T22:32:44.619Z,58.76
2019-05-29T22:35:17.985Z,59.12
2019-05-29T22:37:51.564Z,59.36
2019-05-29T22:40:24.373Z,59.56
2019-05-29T22:42:57.587Z,59.99
2019-05-29T22:45:30.040Z,60.05
2019-05-29T22:48:02.566Z,60.63
2019-05-29T22:50:36.070Z,62.18
2019-05-29T22:53:08.665Z,65.90
2019-05-29T22:55:41.521Z,62.31
2019-05-29T22:58:15.570Z,56.16
2019-05-29T23:00:48.260Z,50.35
2019-05-29T23:03:21.035Z,50.12
2019-05-29T23:05:54.282Z,51.14
2019-05-29T23:08:26.947Z,50.93
2019-05-29T23:11:00.379Z,51.59
2019-05-29T23:13:33.151Z,52.29
2019-05-29T23:16:05.756Z,53.02
2019-05-29T23:18:38.523Z,53.32
2019-05-29T23:21:11.227Z,53.56
2019-05-29T23:23:44.045Z,54.40
2019-05-29T23:26:16.720Z,54.93
2019-05-29T23:28:49.313Z,55.79
2019-05-29T23:31:21.885Z,56.40
2019-05-29T23:33:54.815Z,57.61
2019-05-29T23:36:27.230Z,59.24
2019-05-29T23:38:59.923Z,61.55
2019-05-29T23:41:32.610Z,61.91
2019-05-29T23:44:06.002Z,66.39
2019-05-29T23:46:38.546Z,61.48
2019-05-29T23:49:11.234Z,57.04
2019-05-29T23:51:43.895Z,51.97
2019-05-29T23:54:16.595Z,51.18
2019-05-29T23:56:49.155Z,51.93
2019-05-29T23:59:21.610Z,51.79
